SondeTracker

Meteorological Radiosondes Database

Operations

Sounding was ended - last measurement: 2022-12-07 13:13:09z

MAP
About Radiosonde

Number: D22044006 (22044006)

Launch Site: Riverton [WY] (US)

Type: DFM17

AUX: NO

Frequency: 400.811 MHz

Max Speed: 146 km/h at 27533 m

Average Speed: 69.91 km/h

Max Altitude: 29179 m

Average Ascent Speed: 4.62 m/s

Average Descent Speed: 11.02 m/s

Status: UNKNOWN

Status Changes
Launch Site Type AUX Frequency Status Finder Landing Point Description Changes made by
APRS Statistics

Received Frames: 196

First Frame [UTC]: 2022-12-07 11:03:11z

Last Frame [UTC]: 2022-12-07 13:13:09z

Receivers: KI7YRV

Flight Time: 02:09:58 h

Distance From First Measurement: 153.80 km

Nearest City: Casper [WY] (US) [31.05 km]

Nearest Hunter: [0.00 km]

Ground Altitude: 1647 m

Distance from QTH: 0.00 km

APRS Data
Receiver Number Date/Time [UTC] φ λ Course [°] Speed [km/h] Altitude [m] Description
KI7YRVD220440062022-12-07 13:13:0943.0526-106.57264207951Clb=-6.8m/s t=-40.4C h=-1.0% p=-1.0hPa 400.811 MHz Type=DFM17 ser=22044006 Radiosonde
KI7YRVD220440062022-12-07 13:12:4543.052-106.57362228100Clb=-6.4m/s t=-41.8C h=-1.0% p=-1.0hPa 400.811 MHz Type=DFM17 ser=22044006 Radiosonde
KI7YRVD220440062022-12-07 13:12:1943.051-106.57665308300Clb=-6.7m/s t=-43.1C h=-1.0% p=-1.0hPa 400.811 MHz Type=DFM17 ser=22044006 Radiosonde
KI7YRVD220440062022-12-07 13:11:5343.0502-106.57873228514Clb=-6.7m/s t=-44.8C h=-1.0% p=-1.0hPa 400.811 MHz Type=DFM17 ser=22044006 Radiosonde
KI7YRVD220440062022-12-07 13:11:2643.0498-106.58180198732Clb=-6.8m/s t=-46.5C h=-1.0% p=-1.0hPa 400.811 MHz Type=DFM17 ser=22044006 Radiosonde
KI7YRVD220440062022-12-07 13:10:5943.0497-106.58378178970Clb=-7.6m/s t=-48.3C h=-1.0% p=-1.0hPa 400.811 MHz Type=DFM17 ser=22044006 Radiosonde
KI7YRVD220440062022-12-07 13:10:3243.0494-106.58582199185Clb=-7.7m/s t=-49.7C h=-1.0% p=-1.0hPa 400.811 MHz Type=DFM17 ser=22044006 Radiosonde
KI7YRVD220440062022-12-07 13:10:0143.0492-106.58784229402Clb=-7.1m/s t=-51.4C h=-1.0% p=-1.0hPa 400.811 MHz Type=DFM17 ser=22044006 Radiosonde
KI7YRVD220440062022-12-07 13:09:2843.049-106.58981269636Clb=-7.8m/s t=-53.5C h=-1.0% p=-1.0hPa 400.811 MHz Type=DFM17 ser=22044006 Radiosonde
KI7YRVD220440062022-12-07 13:08:5543.0489-106.59390319856Clb=-7.1m/s t=-54.7C h=-1.0% p=-1.0hPa 400.811 MHz Type=DFM17 ser=22044006 Radiosonde
KI7YRVD220440062022-12-07 13:08:2243.0492-106.597924110106Clb=-8.0m/s t=-54.6C h=-1.0% p=-1.0hPa 400.811 MHz Type=DFM17 ser=22044006 Radiosonde
KI7YRVD220440062022-12-07 13:07:4943.0494-106.601943910338Clb=-7.7m/s t=-56.5C h=-1.0% p=-1.0hPa 400.811 MHz Type=DFM17 ser=22044006 Radiosonde
KI7YRVD220440062022-12-07 13:07:1043.0495-106.605844110574Clb=-7.7m/s t=-58.3C h=-1.0% p=-1.0hPa 400.811 MHz Type=DFM17 ser=22044006 Radiosonde
KI7YRVD220440062022-12-07 13:06:3343.0485-106.609644610802Clb=-7.3m/s t=-59.5C h=-1.0% p=-1.0hPa 400.811 MHz Type=DFM17 ser=22044006 Radiosonde
KI7YRVD220440062022-12-07 13:05:5543.0467-106.615697611023Clb=-7.4m/s t=-57.7C h=-1.0% p=-1.0hPa 400.811 MHz Type=DFM17 ser=22044006 Radiosonde
KI7YRVD220440062022-12-07 13:05:1443.0448-106.624758511256Clb=-7.9m/s t=-57.8C h=-1.0% p=-1.0hPa 400.811 MHz Type=DFM17 ser=22044006 Radiosonde
KI7YRVD220440062022-12-07 13:04:3043.0433-106.6337810011484Clb=-8.6m/s t=-56.9C h=-1.0% p=-1.0hPa 400.811 MHz Type=DFM17 ser=22044006 Radiosonde
KI7YRVD220440062022-12-07 13:03:5343.0416-106.6437510711726Clb=-7.9m/s t=-57.3C h=-1.0% p=-1.0hPa 400.811 MHz Type=DFM17 ser=22044006 Radiosonde
KI7YRVD220440062022-12-07 13:03:1543.0392-106.6557112611972Clb=-7.6m/s t=-57.7C h=-1.0% p=-1.0hPa 400.811 MHz Type=DFM17 ser=22044006 Radiosonde
KI7YRVD220440062022-12-07 13:02:3443.0358-106.6686913312272Clb=-10.5m/s t=-58.0C h=-1.0% p=-1.0hPa 400.811 MHz Type=DFM17 ser=22044006 Radiosonde
KI7YRVD220440062022-12-07 13:01:5343.0317-106.6826913112576Clb=-9.8m/s t=-58.7C h=-1.0% p=-1.0hPa 400.811 MHz Type=DFM17 ser=22044006 Radiosonde
KI7YRVD220440062022-12-07 13:01:0643.0291-106.6957913712867Clb=-8.7m/s t=-58.3C h=-1.0% p=-1.0hPa 400.811 MHz Type=DFM17 ser=22044006 Radiosonde
KI7YRVD220440062022-12-07 13:00:1343.0275-106.717813113150Clb=-8.2m/s t=-54.7C h=-1.0% p=-1.0hPa 400.811 MHz Type=DFM17 ser=22044006 Radiosonde
KI7YRVD220440062022-12-07 12:59:3743.0256-106.7237911913434Clb=-9.8m/s t=-55.9C h=-1.0% p=-1.0hPa 400.811 MHz Type=DFM17 ser=22044006 Radiosonde
KI7YRVD220440062022-12-07 12:59:0443.0237-106.7367413313706Clb=-9.7m/s t=-56.2C h=-1.0% p=-1.0hPa 400.811 MHz Type=DFM17 ser=22044006 Radiosonde
KI7YRVD220440062022-12-07 12:58:3443.0208-106.7497212613990Clb=-9.4m/s t=-58.6C h=-1.0% p=-1.0hPa 400.811 MHz Type=DFM17 ser=22044006 Radiosonde
KI7YRVD220440062022-12-07 12:57:5943.0055-106.8257911715766Clb=-9.7m/s t=-58.4C h=-1.0% p=-1.0hPa 400.811 MHz Type=DFM17 ser=22044006 Radiosonde
KI7YRVD220440062022-12-07 12:57:5743.0039-106.8378111316069Clb=-10.2m/s t=-60.1C h=-1.0% p=-1.0hPa 400.811 MHz Type=DFM17 ser=22044006 Radiosonde
KI7YRVD220440062022-12-07 12:57:5543.0025-106.858212016402Clb=-10.7m/s t=-60.8C h=-1.0% p=-1.0hPa 400.811 MHz Type=DFM17 ser=22044006 Radiosonde
KI7YRVD220440062022-12-07 12:57:5343.0021-106.8629010716737Clb=-11.2m/s t=-62.7C h=-1.0% p=-1.0hPa 400.811 MHz Type=DFM17 ser=22044006 Radiosonde
KI7YRVD220440062022-12-07 12:57:5143.0022-106.8739310017091Clb=-11.5m/s t=-62.2C h=-1.0% p=-1.0hPa 400.811 MHz Type=DFM17 ser=22044006 Radiosonde
KI7YRVD220440062022-12-07 12:57:4943.0024-106.883969817443Clb=-12.3m/s t=-61.5C h=-1.0% p=-1.0hPa 400.811 MHz Type=DFM17 ser=22044006 Radiosonde
KI7YRVD220440062022-12-07 12:57:4743.0044-106.8941049617837Clb=-11.8m/s t=-61.1C h=-1.0% p=-1.0hPa 400.811 MHz Type=DFM17 ser=22044006 Radiosonde
KI7YRVD220440062022-12-07 12:57:4543.006-106.9031038318182Clb=-11.5m/s t=-61.0C h=-1.0% p=-1.0hPa 400.811 MHz Type=DFM17 ser=22044006 Radiosonde
KI7YRVD220440062022-12-07 12:57:4243.0074-106.9121077018533Clb=-11.8m/s t=-61.7C h=-1.0% p=-1.0hPa 400.811 MHz Type=DFM17 ser=22044006 Radiosonde
KI7YRVD220440062022-12-07 12:57:0143.0089-106.921037818893Clb=-11.7m/s t=-61.0C h=-1.0% p=-1.0hPa 400.811 MHz Type=DFM17 ser=22044006 Radiosonde
KI7YRVD220440062022-12-07 12:56:0443.0102-106.9271108119271Clb=-12.6m/s t=-61.5C h=-1.0% p=-1.0hPa 400.811 MHz Type=DFM17 ser=22044006 Radiosonde
KI7YRVD220440062022-12-07 12:55:1143.0129-106.9351166719683Clb=-13.5m/s t=-62.0C h=-1.0% p=-1.0hPa 400.811 MHz Type=DFM17 ser=22044006 Radiosonde
KI7YRVD220440062022-12-07 12:54:2143.0143-106.942987220095Clb=-14.3m/s t=-61.6C h=-1.0% p=-1.0hPa 400.811 MHz Type=DFM17 ser=22044006 Radiosonde
KI7YRVD220440062022-12-07 12:53:3043.0149-106.95998020535Clb=-14.8m/s t=-61.5C h=-1.0% p=-1.0hPa 400.811 MHz Type=DFM17 ser=22044006 Radiosonde
KI7YRVD220440062022-12-07 12:52:3143.0166-106.9581137420985Clb=-14.4m/s t=-61.3C h=-1.0% p=-1.0hPa 400.811 MHz Type=DFM17 ser=22044006 Radiosonde
KI7YRVD220440062022-12-07 12:51:2543.0185-106.9641195721442Clb=-15.6m/s t=-59.3C h=-1.0% p=-1.0hPa 400.811 MHz Type=DFM17 ser=22044006 Radiosonde
KI7YRVD220440062022-12-07 12:50:3343.0205-106.9711017421916Clb=-15.8m/s t=-60.6C h=-1.0% p=-1.0hPa 400.811 MHz Type=DFM17 ser=22044006 Radiosonde
KI7YRVD220440062022-12-07 12:49:3743.0205-106.979857622392Clb=-15.0m/s t=-59.5C h=-1.0% p=-1.0hPa 400.811 MHz Type=DFM17 ser=22044006 Radiosonde
KI7YRVD220440062022-12-07 12:48:3843.0211-106.9881028322866Clb=-15.9m/s t=-60.0C h=-1.0% p=-1.0hPa 400.811 MHz Type=DFM17 ser=22044006 Radiosonde
KI7YRVD220440062022-12-07 12:47:3643.0225-106.99710010023381Clb=-16.7m/s t=-58.7C h=-1.0% p=-1.0hPa 400.811 MHz Type=DFM17 ser=22044006 Radiosonde
KI7YRVD220440062022-12-07 12:46:3343.0233-107.007889823900Clb=-18.1m/s t=-58.2C h=-1.0% p=-1.0hPa 400.811 MHz Type=DFM17 ser=22044006 Radiosonde
KI7YRVD220440062022-12-07 12:45:3643.0236-107.0171059324492Clb=-20.6m/s t=-56.1C h=-1.0% p=-1.0hPa 400.811 MHz Type=DFM17 ser=22044006 Radiosonde
KI7YRVD220440062022-12-07 12:44:3743.0261-107.0251157825147Clb=-21.8m/s t=-58.1C h=-1.0% p=-1.0hPa 400.811 MHz Type=DFM17 ser=22044006 Radiosonde
KI7YRVD220440062022-12-07 12:43:4943.0274-107.032846525855Clb=-23.2m/s t=-59.2C h=-1.0% p=-1.0hPa 400.811 MHz Type=DFM17 ser=22044006 Radiosonde
KI7YRVD220440062022-12-07 12:43:1743.0273-107.039937826613Clb=-24.4m/s t=-60.3C h=-1.0% p=-1.0hPa 400.811 MHz Type=DFM17 ser=22044006 Radiosonde
KI7YRVD220440062022-12-07 12:42:4043.0275-107.047868727362Clb=-25.4m/s t=-59.3C h=-1.0% p=-1.0hPa 400.811 MHz Type=DFM17 ser=22044006 Radiosonde
KI7YRVD220440062022-12-07 12:42:0143.0286-107.056998028148Clb=-25.7m/s t=-57.1C h=-1.0% p=-1.0hPa 400.811 MHz Type=DFM17 ser=22044006 Radiosonde
KI7YRVD220440062022-12-07 12:41:2943.0301-107.0651018928944Clb=-25.8m/s t=-57.6C h=-1.0% p=-1.0hPa 400.811 MHz Type=DFM17 ser=22044006 Radiosonde
KI7YRVD220440062022-12-07 12:41:0343.041-107.2781047629179Clb=-0.3m/s t=-54.6C h=-1.0% p=-1.0hPa 400.811 MHz Type=DFM17 ser=22044006 Radiosonde
KI7YRVD220440062022-12-07 12:39:5743.044-107.2831365429015Clb=5.7m/s t=-53.6C h=-1.0% p=-1.0hPa 400.811 MHz Type=DFM17 ser=22044006 Radiosonde
KI7YRVD220440062022-12-07 12:38:4143.0474-107.2891045028847Clb=-9.0m/s t=-54.0C h=-1.0% p=-1.0hPa 400.811 MHz Type=DFM17 ser=22044006 Radiosonde
KI7YRVD220440062022-12-07 12:37:3143.05-107.2991119428713Clb=5.7m/s t=-54.1C h=-1.0% p=-1.0hPa 400.811 MHz Type=DFM17 ser=22044006 Radiosonde
KI7YRVD220440062022-12-07 12:36:1743.0522-107.3091189328581Clb=-5.4m/s t=-55.6C h=-1.0% p=-1.0hPa 400.811 MHz Type=DFM17 ser=22044006 Radiosonde
KI7YRVD220440062022-12-07 12:35:0343.055-107.3211149828448Clb=6.8m/s t=-56.2C h=-1.0% p=-1.0hPa 400.811 MHz Type=DFM17 ser=22044006 Radiosonde
KI7YRVD220440062022-12-07 12:33:5043.0569-107.33210613328244Clb=-1.2m/s t=-57.6C h=-1.0% p=-1.0hPa 400.811 MHz Type=DFM17 ser=22044006 Radiosonde
KI7YRVD220440062022-12-07 12:32:3843.0583-107.34210710628043Clb=8.1m/s t=-57.7C h=-1.0% p=-1.0hPa 400.811 MHz Type=DFM17 ser=22044006 Radiosonde
KI7YRVD220440062022-12-07 12:31:2443.0603-107.35411914427775Clb=7.5m/s t=-59.0C h=-1.0% p=-1.0hPa 400.811 MHz Type=DFM17 ser=22044006 Radiosonde
KI7YRVD220440062022-12-07 12:30:0843.0616-107.3658514627533Clb=11.6m/s t=-58.2C h=-1.0% p=-1.0hPa 400.811 MHz Type=DFM17 ser=22044006 Radiosonde
KI7YRVD220440062022-12-07 12:28:5043.0613-107.376868327321Clb=13.1m/s t=-59.0C h=-1.0% p=-1.0hPa 400.811 MHz Type=DFM17 ser=22044006 Radiosonde
KI7YRVD220440062022-12-07 12:27:3343.0607-107.387908127141Clb=9.8m/s t=-58.4C h=-1.0% p=-1.0hPa 400.811 MHz Type=DFM17 ser=22044006 Radiosonde
KI7YRVD220440062022-12-07 12:26:1343.0607-107.3979512827002Clb=8.4m/s t=-59.5C h=-1.0% p=-1.0hPa 400.811 MHz Type=DFM17 ser=22044006 Radiosonde
KI7YRVD220440062022-12-07 12:24:5543.0615-107.4088713026843Clb=7.6m/s t=-60.2C h=-1.0% p=-1.0hPa 400.811 MHz Type=DFM17 ser=22044006 Radiosonde
KI7YRVD220440062022-12-07 12:23:5443.0617-107.4186911526704Clb=-4.7m/s t=-61.5C h=-1.0% p=-1.0hPa 400.811 MHz Type=DFM17 ser=22044006 Radiosonde
KI7YRVD220440062022-12-07 12:23:3043.0617-107.4278412826532Clb=7.1m/s t=-61.1C h=-1.0% p=-1.0hPa 400.811 MHz Type=DFM17 ser=22044006 Radiosonde
KI7YRVD220440062022-12-07 12:22:5243.0617-107.436574626321Clb=5.3m/s t=-61.4C h=-1.0% p=-1.0hPa 400.811 MHz Type=DFM17 ser=22044006 Radiosonde
KI7YRVD220440062022-12-07 12:22:4443.062-107.4449610726109Clb=3.4m/s t=-61.1C h=-1.0% p=-1.0hPa 400.811 MHz Type=DFM17 ser=22044006 Radiosonde
KI7YRVD220440062022-12-07 12:21:5643.0864-107.602856722529Clb=5.0m/s t=-59.3C h=-1.0% p=-1.0hPa 400.811 MHz Type=DFM17 ser=22044006 Radiosonde
KI7YRVD220440062022-12-07 12:20:5243.0872-107.6081105622379Clb=3.9m/s t=-58.8C h=-1.0% p=-1.0hPa 400.811 MHz Type=DFM17 ser=22044006 Radiosonde
KI7YRVD220440062022-12-07 12:19:4543.0884-107.614917422196Clb=12.3m/s t=-59.9C h=-1.0% p=-1.0hPa 400.811 MHz Type=DFM17 ser=22044006 Radiosonde
KI7YRVD220440062022-12-07 12:18:3343.0889-107.621807022015Clb=11.0m/s t=-61.0C h=-1.0% p=-1.0hPa 400.811 MHz Type=DFM17 ser=22044006 Radiosonde
KI7YRVD220440062022-12-07 12:17:2943.089-107.627803121806Clb=12.4m/s t=-60.5C h=-1.0% p=-1.0hPa 400.811 MHz Type=DFM17 ser=22044006 Radiosonde
KI7YRVD220440062022-12-07 12:16:3043.0895-107.633794421615Clb=10.8m/s t=-59.1C h=-1.0% p=-1.0hPa 400.811 MHz Type=DFM17 ser=22044006 Radiosonde
KI7YRVD220440062022-12-07 12:15:3543.0902-107.639484821444Clb=4.1m/s t=-59.2C h=-1.0% p=-1.0hPa 400.811 MHz Type=DFM17 ser=22044006 Radiosonde
KI7YRVD220440062022-12-07 12:14:3743.0917-107.645836521282Clb=0.2m/s t=-59.2C h=-1.0% p=-1.0hPa 400.811 MHz Type=DFM17 ser=22044006 Radiosonde
KI7YRVD220440062022-12-07 12:13:3743.093-107.651766521106Clb=-3.2m/s t=-58.9C h=-1.0% p=-1.0hPa 400.811 MHz Type=DFM17 ser=22044006 Radiosonde
KI7YRVD220440062022-12-07 12:12:2543.0953-107.65813610720904Clb=4.4m/s t=-58.3C h=-1.0% p=-1.0hPa 400.811 MHz Type=DFM17 ser=22044006 Radiosonde
KI7YRVD220440062022-12-07 12:11:1743.0979-107.66511311320726Clb=1.8m/s t=-58.8C h=-1.0% p=-1.0hPa 400.811 MHz Type=DFM17 ser=22044006 Radiosonde
KI7YRVD220440062022-12-07 12:10:0443.1005-107.6741069820531Clb=8.3m/s t=-59.2C h=-1.0% p=-1.0hPa 400.811 MHz Type=DFM17 ser=22044006 Radiosonde
KI7YRVD220440062022-12-07 12:08:5543.1024-107.68311710920339Clb=8.2m/s t=-60.3C h=-1.0% p=-1.0hPa 400.811 MHz Type=DFM17 ser=22044006 Radiosonde
KI7YRVD220440062022-12-07 12:07:4643.1035-107.691836720156Clb=10.1m/s t=-59.3C h=-1.0% p=-1.0hPa 400.811 MHz Type=DFM17 ser=22044006 Radiosonde
KI7YRVD220440062022-12-07 12:06:4443.1039-107.6991056319998Clb=7.8m/s t=-58.8C h=-1.0% p=-1.0hPa 400.811 MHz Type=DFM17 ser=22044006 Radiosonde
KI7YRVD220440062022-12-07 12:05:3643.1046-107.7061208119870Clb=6.8m/s t=-59.6C h=-1.0% p=-1.0hPa 400.811 MHz Type=DFM17 ser=22044006 Radiosonde
KI7YRVD220440062022-12-07 12:04:2843.1056-107.7151086919743Clb=4.8m/s t=-60.8C h=-1.0% p=-1.0hPa 400.811 MHz Type=DFM17 ser=22044006 Radiosonde
KI7YRVD220440062022-12-07 12:03:4543.1074-107.7231108519614Clb=5.9m/s t=-60.9C h=-1.0% p=-1.0hPa 400.811 MHz Type=DFM17 ser=22044006 Radiosonde
KI7YRVD220440062022-12-07 12:03:2043.1103-107.7311208919469Clb=4.9m/s t=-60.6C h=-1.0% p=-1.0hPa 400.811 MHz Type=DFM17 ser=22044006 Radiosonde
KI7YRVD220440062022-12-07 12:02:5243.1212-107.7761188118676Clb=9.5m/s t=-62.5C h=-1.0% p=-1.0hPa 400.811 MHz Type=DFM17 ser=22044006 Radiosonde
KI7YRVD220440062022-12-07 12:02:4943.123-107.785959118515Clb=5.0m/s t=-61.8C h=-1.0% p=-1.0hPa 400.811 MHz Type=DFM17 ser=22044006 Radiosonde
KI7YRVD220440062022-12-07 12:02:1543.1242-107.7941058118375Clb=4.1m/s t=-61.8C h=-1.0% p=-1.0hPa 400.811 MHz Type=DFM17 ser=22044006 Radiosonde
KI7YRVD220440062022-12-07 12:01:5843.1259-107.8039411918234Clb=-1.1m/s t=-61.3C h=-1.0% p=-1.0hPa 400.811 MHz Type=DFM17 ser=22044006 Radiosonde
KI7YRVD220440062022-12-07 12:01:5443.1276-107.813888518112Clb=1.7m/s t=-61.0C h=-1.0% p=-1.0hPa 400.811 MHz Type=DFM17 ser=22044006 Radiosonde
KI7YRVD220440062022-12-07 12:01:5143.1296-107.82410910617998Clb=3.6m/s t=-61.8C h=-1.0% p=-1.0hPa 400.811 MHz Type=DFM17 ser=22044006 Radiosonde
KI7YRVD220440062022-12-07 12:01:4843.1314-107.8341019617875Clb=4.0m/s t=-61.7C h=-1.0% p=-1.0hPa 400.811 MHz Type=DFM17 ser=22044006 Radiosonde
KI7YRVD220440062022-12-07 12:01:4543.1331-107.8459710717751Clb=4.3m/s t=-61.1C h=-1.0% p=-1.0hPa 400.811 MHz Type=DFM17 ser=22044006 Radiosonde
KI7YRVD220440062022-12-07 12:01:0843.135-107.8569012417596Clb=8.4m/s t=-63.1C h=-1.0% p=-1.0hPa 400.811 MHz Type=DFM17 ser=22044006 Radiosonde
KI7YRVD220440062022-12-07 12:00:0543.1356-107.866896717417Clb=9.6m/s t=-62.9C h=-1.0% p=-1.0hPa 400.811 MHz Type=DFM17 ser=22044006 Radiosonde
KI7YRVD220440062022-12-07 11:58:5943.1359-107.8758912617235Clb=8.2m/s t=-62.7C h=-1.0% p=-1.0hPa 400.811 MHz Type=DFM17 ser=22044006 Radiosonde
KI7YRVD220440062022-12-07 11:57:5243.1365-107.8858811117041Clb=10.2m/s t=-62.1C h=-1.0% p=-1.0hPa 400.811 MHz Type=DFM17 ser=22044006 Radiosonde
KI7YRVD220440062022-12-07 11:56:4043.1366-107.8969510216858Clb=9.3m/s t=-61.3C h=-1.0% p=-1.0hPa 400.811 MHz Type=DFM17 ser=22044006 Radiosonde
KI7YRVD220440062022-12-07 11:55:3943.1364-107.9088013316699Clb=3.1m/s t=-61.8C h=-1.0% p=-1.0hPa 400.811 MHz Type=DFM17 ser=22044006 Radiosonde
KI7YRVD220440062022-12-07 11:54:4243.1366-107.9199510216552Clb=4.4m/s t=-62.0C h=-1.0% p=-1.0hPa 400.811 MHz Type=DFM17 ser=22044006 Radiosonde
KI7YRVD220440062022-12-07 11:53:4143.1366-107.93989316409Clb=10.6m/s t=-61.2C h=-1.0% p=-1.0hPa 400.811 MHz Type=DFM17 ser=22044006 Radiosonde
KI7YRVD220440062022-12-07 11:52:4043.1355-107.9428110216271Clb=5.8m/s t=-61.5C h=-1.0% p=-1.0hPa 400.811 MHz Type=DFM17 ser=22044006 Radiosonde
KI7YRVD220440062022-12-07 11:51:4943.1345-107.9528110216139Clb=4.4m/s t=-61.3C h=-1.0% p=-1.0hPa 400.811 MHz Type=DFM17 ser=22044006 Radiosonde
KI7YRVD220440062022-12-07 11:51:1843.1177-108.0428912414963Clb=7.1m/s t=-58.8C h=-1.0% p=-1.0hPa 400.811 MHz Type=DFM17 ser=22044006 Radiosonde
KI7YRVD220440062022-12-07 11:51:1643.116-108.0537511314826Clb=5.7m/s t=-58.5C h=-1.0% p=-1.0hPa 400.811 MHz Type=DFM17 ser=22044006 Radiosonde
KI7YRVD220440062022-12-07 11:51:1343.1137-108.0646811314672Clb=5.7m/s t=-58.3C h=-1.0% p=-1.0hPa 400.811 MHz Type=DFM17 ser=22044006 Radiosonde
KI7YRVD220440062022-12-07 11:51:1143.1104-108.0766910614515Clb=4.9m/s t=-58.1C h=-1.0% p=-1.0hPa 400.811 MHz Type=DFM17 ser=22044006 Radiosonde
KI7YRVD220440062022-12-07 11:50:2543.1081-108.087769314362Clb=6.5m/s t=-58.3C h=-1.0% p=-1.0hPa 400.811 MHz Type=DFM17 ser=22044006 Radiosonde
KI7YRVD220440062022-12-07 11:49:3343.1062-108.098709114211Clb=0.6m/s t=-58.0C h=-1.0% p=-1.0hPa 400.811 MHz Type=DFM17 ser=22044006 Radiosonde
KI7YRVD220440062022-12-07 11:48:3543.1048-108.109818314073Clb=2.4m/s t=-57.7C h=-1.0% p=-1.0hPa 400.811 MHz Type=DFM17 ser=22044006 Radiosonde
KI7YRVD220440062022-12-07 11:47:3643.1032-108.1228610613931Clb=6.2m/s t=-57.9C h=-1.0% p=-1.0hPa 400.811 MHz Type=DFM17 ser=22044006 Radiosonde
KI7YRVD220440062022-12-07 11:46:3643.1023-108.1338410713823Clb=3.0m/s t=-58.0C h=-1.0% p=-1.0hPa 400.811 MHz Type=DFM17 ser=22044006 Radiosonde
KI7YRVD220440062022-12-07 11:45:3843.1012-108.1458410913693Clb=4.9m/s t=-57.3C h=-1.0% p=-1.0hPa 400.811 MHz Type=DFM17 ser=22044006 Radiosonde
KI7YRVD220440062022-12-07 11:44:4143.1002-108.157758513550Clb=2.6m/s t=-57.4C h=-1.0% p=-1.0hPa 400.811 MHz Type=DFM17 ser=22044006 Radiosonde
KI7YRVD220440062022-12-07 11:44:0043.0989-108.1688611713407Clb=2.7m/s t=-57.3C h=-1.0% p=-1.0hPa 400.811 MHz Type=DFM17 ser=22044006 Radiosonde
KI7YRVD220440062022-12-07 11:43:5243.0966-108.186010613249Clb=2.5m/s t=-57.3C h=-1.0% p=-1.0hPa 400.811 MHz Type=DFM17 ser=22044006 Radiosonde
KI7YRVD220440062022-12-07 11:43:4443.0937-108.1916410013112Clb=3.4m/s t=-57.5C h=-1.0% p=-1.0hPa 400.811 MHz Type=DFM17 ser=22044006 Radiosonde
KI7YRVD220440062022-12-07 11:43:1543.0906-108.2036011112974Clb=2.0m/s t=-56.8C h=-1.0% p=-1.0hPa 400.811 MHz Type=DFM17 ser=22044006 Radiosonde
KI7YRVD220440062022-12-07 11:42:4643.0869-108.2156711712838Clb=3.0m/s t=-55.8C h=-1.0% p=-1.0hPa 400.811 MHz Type=DFM17 ser=22044006 Radiosonde
KI7YRVD220440062022-12-07 11:42:0243.0833-108.2287313112710Clb=2.2m/s t=-56.1C h=-1.0% p=-1.0hPa 400.811 MHz Type=DFM17 ser=22044006 Radiosonde
KI7YRVD220440062022-12-07 11:41:0743.0797-108.2416410712576Clb=5.2m/s t=-56.2C h=-1.0% p=-1.0hPa 400.811 MHz Type=DFM17 ser=22044006 Radiosonde
KI7YRVD220440062022-12-07 11:40:1443.0762-108.253639612442Clb=4.3m/s t=-56.7C h=-1.0% p=-1.0hPa 400.811 MHz Type=DFM17 ser=22044006 Radiosonde
KI7YRVD220440062022-12-07 11:39:3443.0733-108.264748512285Clb=2.8m/s t=-57.3C h=-1.0% p=-1.0hPa 400.811 MHz Type=DFM17 ser=22044006 Radiosonde
KI7YRVD220440062022-12-07 11:38:3643.0712-108.274727612128Clb=3.5m/s t=-58.1C h=-1.0% p=-1.0hPa 400.811 MHz Type=DFM17 ser=22044006 Radiosonde
KI7YRVD220440062022-12-07 11:37:3543.0689-108.2836710411966Clb=5.9m/s t=-58.0C h=-1.0% p=-1.0hPa 400.811 MHz Type=DFM17 ser=22044006 Radiosonde
KI7YRVD220440062022-12-07 11:36:3443.0674-108.2927710611815Clb=3.3m/s t=-58.4C h=-1.0% p=-1.0hPa 400.811 MHz Type=DFM17 ser=22044006 Radiosonde
KI7YRVD220440062022-12-07 11:35:4743.0657-108.301769111678Clb=3.9m/s t=-57.6C h=-1.0% p=-1.0hPa 400.811 MHz Type=DFM17 ser=22044006 Radiosonde
KI7YRVD220440062022-12-07 11:35:1643.0641-108.309888111551Clb=6.8m/s t=-57.8C h=-1.0% p=-1.0hPa 400.811 MHz Type=DFM17 ser=22044006 Radiosonde
KI7YRVD220440062022-12-07 11:34:4543.0629-108.317829611429Clb=2.4m/s t=-57.6C h=-1.0% p=-1.0hPa 400.811 MHz Type=DFM17 ser=22044006 Radiosonde
KI7YRVD220440062022-12-07 11:34:4143.0618-108.325706911327Clb=2.4m/s t=-58.3C h=-1.0% p=-1.0hPa 400.811 MHz Type=DFM17 ser=22044006 Radiosonde
KI7YRVD220440062022-12-07 11:34:3743.0609-108.331834611204Clb=4.3m/s t=-59.8C h=-1.0% p=-1.0hPa 400.811 MHz Type=DFM17 ser=22044006 Radiosonde
KI7YRVD220440062022-12-07 11:33:5543.0595-108.336625611067Clb=7.5m/s t=-60.7C h=-1.0% p=-1.0hPa 400.811 MHz Type=DFM17 ser=22044006 Radiosonde
KI7YRVD220440062022-12-07 11:33:0643.0578-108.339153510910Clb=6.8m/s t=-59.7C h=-1.0% p=-1.0hPa 400.811 MHz Type=DFM17 ser=22044006 Radiosonde
KI7YRVD220440062022-12-07 11:32:1343.0567-108.341764110670Clb=10.2m/s t=-58.3C h=-1.0% p=-1.0hPa 400.811 MHz Type=DFM17 ser=22044006 Radiosonde
KI7YRVD220440062022-12-07 11:31:3943.0572-108.3441193310538Clb=5.2m/s t=-58.0C h=-1.0% p=-1.0hPa 400.811 MHz Type=DFM17 ser=22044006 Radiosonde
KI7YRVD220440062022-12-07 11:31:0843.058-108.3471023510403Clb=8.5m/s t=-56.9C h=-1.0% p=-1.0hPa 400.811 MHz Type=DFM17 ser=22044006 Radiosonde
KI7YRVD220440062022-12-07 11:30:3643.0587-108.35753910247Clb=3.4m/s t=-56.3C h=-1.0% p=-1.0hPa 400.811 MHz Type=DFM17 ser=22044006 Radiosonde
KI7YRVD220440062022-12-07 11:30:0543.0591-108.3531004110116Clb=2.9m/s t=-55.9C h=-1.0% p=-1.0hPa 400.811 MHz Type=DFM17 ser=22044006 Radiosonde
KI7YRVD220440062022-12-07 11:29:5343.0589-108.35697319995Clb=4.3m/s t=-55.4C h=-1.0% p=-1.0hPa 400.811 MHz Type=DFM17 ser=22044006 Radiosonde
KI7YRVD220440062022-12-07 11:29:3043.0584-108.35950269869Clb=2.3m/s t=-54.5C h=-1.0% p=-1.0hPa 400.811 MHz Type=DFM17 ser=22044006 Radiosonde
KI7YRVD220440062022-12-07 11:28:4543.0579-108.36187289748Clb=5.1m/s t=-53.7C h=-1.0% p=-1.0hPa 400.811 MHz Type=DFM17 ser=22044006 Radiosonde
KI7YRVD220440062022-12-07 11:28:0143.0573-108.36460209621Clb=5.5m/s t=-52.8C h=-1.0% p=-1.0hPa 400.811 MHz Type=DFM17 ser=22044006 Radiosonde
KI7YRVD220440062022-12-07 11:27:3043.0568-108.3663269491Clb=3.9m/s t=-51.8C h=-1.0% p=-1.0hPa 400.811 MHz Type=DFM17 ser=22044006 Radiosonde
KI7YRVD220440062022-12-07 11:26:5943.0564-108.3673199366Clb=3.2m/s t=-50.9C h=-1.0% p=-1.0hPa 400.811 MHz Type=DFM17 ser=22044006 Radiosonde
KI7YRVD220440062022-12-07 11:26:2843.0562-108.36999309234Clb=3.6m/s t=-49.9C h=-1.0% p=-1.0hPa 400.811 MHz Type=DFM17 ser=22044006 Radiosonde
KI7YRVD220440062022-12-07 11:25:5743.0559-108.373569097Clb=3.0m/s t=-49.2C h=-1.0% p=-1.0hPa 400.811 MHz Type=DFM17 ser=22044006 Radiosonde
KI7YRVD220440062022-12-07 11:25:2643.0561-108.371327138949Clb=8.8m/s t=-48.5C h=-1.0% p=-1.0hPa 400.811 MHz Type=DFM17 ser=22044006 Radiosonde
KI7YRVD220440062022-12-07 11:25:0943.0561-108.37210778774Clb=6.0m/s t=-47.1C h=-1.0% p=-1.0hPa 400.811 MHz Type=DFM17 ser=22044006 Radiosonde
KI7YRVD220440062022-12-07 11:24:2943.0564-108.37391198617Clb=5.9m/s t=-45.8C h=-1.0% p=-1.0hPa 400.811 MHz Type=DFM17 ser=22044006 Radiosonde
KI7YRVD220440062022-12-07 11:23:5343.0564-108.374119198458Clb=3.2m/s t=-44.4C h=-1.0% p=-1.0hPa 400.811 MHz Type=DFM17 ser=22044006 Radiosonde
KI7YRVD220440062022-12-07 11:23:2243.056-108.37571208309Clb=4.1m/s t=-43.3C h=-1.0% p=-1.0hPa 400.811 MHz Type=DFM17 ser=22044006 Radiosonde
KI7YRVD220440062022-12-07 11:22:5143.0555-108.376321198157Clb=3.2m/s t=-42.1C h=-1.0% p=-1.0hPa 400.811 MHz Type=DFM17 ser=22044006 Radiosonde
KI7YRVD220440062022-12-07 11:22:2043.055-108.376124198006Clb=3.0m/s t=-41.0C h=-1.0% p=-1.0hPa 400.811 MHz Type=DFM17 ser=22044006 Radiosonde
KI7YRVD220440062022-12-07 11:21:4943.0548-108.376298267877Clb=2.8m/s t=-40.0C h=-1.0% p=-1.0hPa 400.811 MHz Type=DFM17 ser=22044006 Radiosonde
KI7YRVD220440062022-12-07 11:21:1843.0551-108.376215247741Clb=4.3m/s t=-39.3C h=-1.0% p=-1.0hPa 400.811 MHz Type=DFM17 ser=22044006 Radiosonde
KI7YRVD220440062022-12-07 11:20:5043.0556-108.376219207622Clb=2.9m/s t=-38.5C h=-1.0% p=-1.0hPa 400.811 MHz Type=DFM17 ser=22044006 Radiosonde
KI7YRVD220440062022-12-07 11:20:1643.056-108.376198247507Clb=4.0m/s t=-37.5C h=-1.0% p=-1.0hPa 400.811 MHz Type=DFM17 ser=22044006 Radiosonde
KI7YRVD220440062022-12-07 11:19:4543.0565-108.37615227365Clb=4.4m/s t=-36.2C h=-1.0% p=-1.0hPa 400.811 MHz Type=DFM17 ser=22044006 Radiosonde
KI7YRVD220440062022-12-07 11:19:1443.0569-108.376181247249Clb=4.5m/s t=-35.1C h=-1.0% p=-1.0hPa 400.811 MHz Type=DFM17 ser=22044006 Radiosonde
KI7YRVD220440062022-12-07 11:18:4243.0574-108.37616797117Clb=6.0m/s t=-34.0C h=-1.0% p=-1.0hPa 400.811 MHz Type=DFM17 ser=22044006 Radiosonde
KI7YRVD220440062022-12-07 11:18:1243.0578-108.376132246967Clb=2.6m/s t=-32.8C h=-1.0% p=-1.0hPa 400.811 MHz Type=DFM17 ser=22044006 Radiosonde
KI7YRVD220440062022-12-07 11:17:4043.0579-108.377155176829Clb=3.0m/s t=-31.5C h=-1.0% p=-1.0hPa 400.811 MHz Type=DFM17 ser=22044006 Radiosonde
KI7YRVD220440062022-12-07 11:17:0943.0581-108.37728896675Clb=5.0m/s t=-30.1C h=-1.0% p=-1.0hPa 400.811 MHz Type=DFM17 ser=22044006 Radiosonde
KI7YRVD220440062022-12-07 11:16:4043.0577-108.37815176527Clb=4.7m/s t=-28.7C h=-1.0% p=-1.0hPa 400.811 MHz Type=DFM17 ser=22044006 Radiosonde
KI7YRVD220440062022-12-07 11:16:0743.057-108.379342206365Clb=4.3m/s t=-27.2C h=-1.0% p=-1.0hPa 400.811 MHz Type=DFM17 ser=22044006 Radiosonde
KI7YRVD220440062022-12-07 11:15:3643.0568-108.3813426202Clb=5.4m/s t=-25.8C h=-1.0% p=-1.0hPa 400.811 MHz Type=DFM17 ser=22044006 Radiosonde
KI7YRVD220440062022-12-07 11:15:0543.0563-108.38352416030Clb=5.2m/s t=-26.0C h=-1.0% p=-1.0hPa 400.811 MHz Type=DFM17 ser=22044006 Radiosonde
KI7YRVD220440062022-12-07 11:14:3443.0552-108.38747375887Clb=6.4m/s t=-25.9C h=-1.0% p=-1.0hPa 400.811 MHz Type=DFM17 ser=22044006 Radiosonde
KI7YRVD220440062022-12-07 11:14:0343.0539-108.39172565748Clb=6.1m/s t=-24.8C h=-1.0% p=-1.0hPa 400.811 MHz Type=DFM17 ser=22044006 Radiosonde
KI7YRVD220440062022-12-07 11:13:3243.0532-108.39468415576Clb=8.3m/s t=-23.6C h=-1.0% p=-1.0hPa 400.811 MHz Type=DFM17 ser=22044006 Radiosonde
KI7YRVD220440062022-12-07 11:13:0143.0529-108.39883355419Clb=6.0m/s t=-22.7C h=-1.0% p=-1.0hPa 400.811 MHz Type=DFM17 ser=22044006 Radiosonde
KI7YRVD220440062022-12-07 11:12:3043.0532-108.40394565243Clb=4.3m/s t=-21.5C h=-1.0% p=-1.0hPa 400.811 MHz Type=DFM17 ser=22044006 Radiosonde
KI7YRVD220440062022-12-07 11:11:5943.0536-108.40892575097Clb=4.7m/s t=-20.6C h=-1.0% p=-1.0hPa 400.811 MHz Type=DFM17 ser=22044006 Radiosonde
KI7YRVD220440062022-12-07 11:11:2843.0541-108.413115354921Clb=5.5m/s t=-19.6C h=-1.0% p=-1.0hPa 400.811 MHz Type=DFM17 ser=22044006 Radiosonde
KI7YRVD220440062022-12-07 11:10:5743.0546-108.41775354749Clb=6.7m/s t=-18.2C h=-1.0% p=-1.0hPa 400.811 MHz Type=DFM17 ser=22044006 Radiosonde
KI7YRVD220440062022-12-07 11:10:2643.055-108.42185524569Clb=4.7m/s t=-16.5C h=-1.0% p=-1.0hPa 400.811 MHz Type=DFM17 ser=22044006 Radiosonde
KI7YRVD220440062022-12-07 11:09:5543.0552-108.42574544415Clb=5.4m/s t=-15.2C h=-1.0% p=-1.0hPa 400.811 MHz Type=DFM17 ser=22044006 Radiosonde
KI7YRVD220440062022-12-07 11:09:2443.0547-108.42891304232Clb=7.7m/s t=-14.2C h=-1.0% p=-1.0hPa 400.811 MHz Type=DFM17 ser=22044006 Radiosonde
KI7YRVD220440062022-12-07 11:08:5343.0546-108.43113094070Clb=5.9m/s t=-13.5C h=-1.0% p=-1.0hPa 400.811 MHz Type=DFM17 ser=22044006 Radiosonde
KI7YRVD220440062022-12-07 11:08:2243.0547-108.433147203903Clb=3.7m/s t=-12.2C h=-1.0% p=-1.0hPa 400.811 MHz Type=DFM17 ser=22044006 Radiosonde
KI7YRVD220440062022-12-07 11:07:5143.0551-108.436108353745Clb=7.8m/s t=-11.0C h=-1.0% p=-1.0hPa 400.811 MHz Type=DFM17 ser=22044006 Radiosonde
KI7YRVD220440062022-12-07 11:07:1943.0564-108.439126463572Clb=6.8m/s t=-10.0C h=-1.0% p=-1.0hPa 400.811 MHz Type=DFM17 ser=22044006 Radiosonde
KI7YRVD220440062022-12-07 11:06:4843.0581-108.443103593374Clb=7.3m/s t=-10.3C h=-1.0% p=-1.0hPa 400.811 MHz Type=DFM17 ser=22044006 Radiosonde
KI7YRVD220440062022-12-07 11:06:1743.0599-108.447124543151Clb=9.0m/s t=-8.6C h=-1.0% p=-1.0hPa 400.811 MHz Type=DFM17 ser=22044006 Radiosonde
KI7YRVD220440062022-12-07 11:05:4643.0612-108.451118262968Clb=7.9m/s t=-7.0C h=-1.0% p=-1.0hPa 400.811 MHz Type=DFM17 ser=22044006 Radiosonde
KI7YRVD220440062022-12-07 11:05:1543.0615-108.4535262763Clb=6.2m/s t=-5.4C h=-1.0% p=-1.0hPa 400.811 MHz Type=DFM17 ser=22044006 Radiosonde
KI7YRVD220440062022-12-07 11:04:4443.0608-108.455311192562Clb=6.2m/s t=-4.3C h=-1.0% p=-1.0hPa 400.811 MHz Type=DFM17 ser=22044006 Radiosonde
KI7YRVD220440062022-12-07 11:04:1343.0606-108.45755262373Clb=3.9m/s t=-4.2C h=-1.0% p=-1.0hPa 400.811 MHz Type=DFM17 ser=22044006 Radiosonde
KI7YRVD220440062022-12-07 11:03:4243.0615-108.46171392201Clb=5.4m/s t=-3.3C h=-1.0% p=-1.0hPa 400.811 MHz Type=DFM17 ser=22044006 Radiosonde
KI7YRVD220440062022-12-07 11:03:1143.0626-108.465121412023Clb=5.0m/s t=-1.9C h=-1.0% p=-1.0hPa 400.811 MHz Type=DFM17 ser=22044006 Radiosonde